sensor_id;sensor_type;location;lat;lon;timestamp;P1;durP1;ratioP1;P2;durP2;ratioP2
23826;SDS011;12094;50.822;4.376;2023-04-03T00:00:01;15.07;;;8.32;;
23826;SDS011;12094;50.822;4.376;2023-04-03T00:02:35;13.85;;;8.32;;
23826;SDS011;12094;50.822;4.376;2023-04-03T00:05:02;12.48;;;8.25;;
23826;SDS011;12094;50.822;4.376;2023-04-03T00:07:30;11.55;;;7.30;;
23826;SDS011;12094;50.822;4.376;2023-04-03T00:09:57;15.15;;;8.10;;
23826;SDS011;12094;50.822;4.376;2023-04-03T00:12:25;15.48;;;8.70;;
23826;SDS011;12094;50.822;4.376;2023-04-03T00:14:55;13.25;;;7.55;;
23826;SDS011;12094;50.822;4.376;2023-04-03T00:17:22;12.15;;;7.68;;
23826;SDS011;12094;50.822;4.376;2023-04-03T00:19:50;13.73;;;7.93;;
23826;SDS011;12094;50.822;4.376;2023-04-03T00:22:18;11.48;;;7.50;;
23826;SDS011;12094;50.822;4.376;2023-04-03T00:24:45;12.18;;;7.63;;
23826;SDS011;12094;50.822;4.376;2023-04-03T00:27:14;14.10;;;7.65;;
23826;SDS011;12094;50.822;4.376;2023-04-03T00:29:44;12.25;;;7.15;;
23826;SDS011;12094;50.822;4.376;2023-04-03T00:32:12;13.85;;;7.20;;
23826;SDS011;12094;50.822;4.376;2023-04-03T00:34:40;13.63;;;8.70;;
23826;SDS011;12094;50.822;4.376;2023-04-03T00:37:09;12.93;;;7.35;;
23826;SDS011;12094;50.822;4.376;2023-04-03T00:39:36;9.82;;;6.65;;
23826;SDS011;12094;50.822;4.376;2023-04-03T00:42:04;13.10;;;6.82;;
23826;SDS011;12094;50.822;4.376;2023-04-03T00:47:03;13.90;;;7.32;;
23826;SDS011;12094;50.822;4.376;2023-04-03T00:49:33;13.38;;;7.50;;
23826;SDS011;12094;50.822;4.376;2023-04-03T00:52:02;10.75;;;7.53;;
23826;SDS011;12094;50.822;4.376;2023-04-03T00:54:30;13.15;;;7.10;;
23826;SDS011;12094;50.822;4.376;2023-04-03T00:56:57;12.55;;;7.47;;
23826;SDS011;12094;50.822;4.376;2023-04-03T00:59:25;10.52;;;7.53;;
23826;SDS011;12094;50.822;4.376;2023-04-03T01:01:57;12.45;;;7.25;;
23826;SDS011;12094;50.822;4.376;2023-04-03T01:07:09;13.27;;;7.88;;
23826;SDS011;12094;50.822;4.376;2023-04-03T01:09:43;14.88;;;7.55;;
23826;SDS011;12094;50.822;4.376;2023-04-03T01:14:50;13.05;;;7.32;;
23826;SDS011;12094;50.822;4.376;2023-04-03T01:17:32;15.80;;;7.47;;
23826;SDS011;12094;50.822;4.376;2023-04-03T01:22:38;16.77;;;7.38;;
23826;SDS011;12094;50.822;4.376;2023-04-03T01:25:16;16.88;;;7.75;;
23826;SDS011;12094;50.822;4.376;2023-04-03T01:27:44;12.88;;;8.10;;
23826;SDS011;12094;50.822;4.376;2023-04-03T01:30:13;13.05;;;7.07;;
23826;SDS011;12094;50.822;4.376;2023-04-03T01:32:43;13.80;;;8.38;;
23826;SDS011;12094;50.822;4.376;2023-04-03T01:35:12;11.07;;;7.47;;
23826;SDS011;12094;50.822;4.376;2023-04-03T01:37:41;12.85;;;7.60;;
23826;SDS011;12094;50.822;4.376;2023-04-03T01:40:08;13.55;;;8.18;;
23826;SDS011;12094;50.822;4.376;2023-04-03T01:42:37;14.30;;;7.57;;
23826;SDS011;12094;50.822;4.376;2023-04-03T01:45:04;12.82;;;7.75;;
23826;SDS011;12094;50.822;4.376;2023-04-03T01:47:32;14.07;;;7.70;;
23826;SDS011;12094;50.822;4.376;2023-04-03T01:50:00;13.40;;;7.72;;
23826;SDS011;12094;50.822;4.376;2023-04-03T01:52:31;14.18;;;8.15;;
23826;SDS011;12094;50.822;4.376;2023-04-03T01:55:01;12.10;;;7.22;;
23826;SDS011;12094;50.822;4.376;2023-04-03T01:57:28;13.23;;;7.47;;
23826;SDS011;12094;50.822;4.376;2023-04-03T01:59:56;12.90;;;7.47;;
23826;SDS011;12094;50.822;4.376;2023-04-03T02:02:24;9.55;;;7.32;;
23826;SDS011;12094;50.822;4.376;2023-04-03T02:04:52;15.52;;;8.45;;
23826;SDS011;12094;50.822;4.376;2023-04-03T02:07:21;12.02;;;7.68;;
23826;SDS011;12094;50.822;4.376;2023-04-03T02:09:52;14.77;;;6.93;;
23826;SDS011;12094;50.822;4.376;2023-04-03T02:12:21;14.82;;;7.60;;
23826;SDS011;12094;50.822;4.376;2023-04-03T02:14:50;13.70;;;7.45;;
23826;SDS011;12094;50.822;4.376;2023-04-03T02:17:16;18.35;;;7.97;;
23826;SDS011;12094;50.822;4.376;2023-04-03T02:19:45;12.57;;;8.07;;
23826;SDS011;12094;50.822;4.376;2023-04-03T02:22:13;18.95;;;7.97;;
23826;SDS011;12094;50.822;4.376;2023-04-03T02:24:40;15.93;;;8.18;;
23826;SDS011;12094;50.822;4.376;2023-04-03T02:27:07;17.65;;;8.38;;
23826;SDS011;12094;50.822;4.376;2023-04-03T02:29:34;12.57;;;7.68;;
23826;SDS011;12094;50.822;4.376;2023-04-03T02:32:01;14.13;;;8.20;;
23826;SDS011;12094;50.822;4.376;2023-04-03T02:34:30;13.10;;;7.90;;
23826;SDS011;12094;50.822;4.376;2023-04-03T02:37:00;16.70;;;8.27;;
23826;SDS011;12094;50.822;4.376;2023-04-03T02:39:30;13.43;;;8.15;;
23826;SDS011;12094;50.822;4.376;2023-04-03T02:41:59;12.75;;;7.88;;
23826;SDS011;12094;50.822;4.376;2023-04-03T02:44:27;15.50;;;8.40;;
23826;SDS011;12094;50.822;4.376;2023-04-03T02:46:54;15.48;;;8.38;;
23826;SDS011;12094;50.822;4.376;2023-04-03T02:49:23;18.00;;;8.60;;
23826;SDS011;12094;50.822;4.376;2023-04-03T02:51:50;14.30;;;8.35;;
23826;SDS011;12094;50.822;4.376;2023-04-03T02:54:17;11.02;;;7.78;;
23826;SDS011;12094;50.822;4.376;2023-04-03T02:56:50;11.55;;;7.57;;
23826;SDS011;12094;50.822;4.376;2023-04-03T02:59:17;17.90;;;8.43;;
23826;SDS011;12094;50.822;4.376;2023-04-03T03:01:44;14.30;;;8.05;;
23826;SDS011;12094;50.822;4.376;2023-04-03T03:04:11;16.20;;;8.35;;
23826;SDS011;12094;50.822;4.376;2023-04-03T03:06:39;11.93;;;7.70;;
23826;SDS011;12094;50.822;4.376;2023-04-03T03:09:09;14.45;;;8.02;;
23826;SDS011;12094;50.822;4.376;2023-04-03T03:11:37;12.98;;;7.82;;
23826;SDS011;12094;50.822;4.376;2023-04-03T03:14:04;12.75;;;8.20;;
23826;SDS011;12094;50.822;4.376;2023-04-03T03:16:33;11.98;;;7.93;;
23826;SDS011;12094;50.822;4.376;2023-04-03T03:19:04;15.18;;;8.27;;
23826;SDS011;12094;50.822;4.376;2023-04-03T03:21:33;13.80;;;8.35;;
23826;SDS011;12094;50.822;4.376;2023-04-03T03:24:00;11.23;;;7.85;;
23826;SDS011;12094;50.822;4.376;2023-04-03T03:26:27;15.23;;;8.52;;
23826;SDS011;12094;50.822;4.376;2023-04-03T03:28:56;12.18;;;7.82;;
23826;SDS011;12094;50.822;4.376;2023-04-03T03:31:23;11.98;;;7.85;;
23826;SDS011;12094;50.822;4.376;2023-04-03T03:33:50;12.88;;;8.00;;
23826;SDS011;12094;50.822;4.376;2023-04-03T03:36:17;12.90;;;7.65;;
23826;SDS011;12094;50.822;4.376;2023-04-03T03:38:44;16.08;;;8.63;;
23826;SDS011;12094;50.822;4.376;2023-04-03T03:41:13;12.63;;;8.05;;
23826;SDS011;12094;50.822;4.376;2023-04-03T03:43:43;13.48;;;7.95;;
23826;SDS011;12094;50.822;4.376;2023-04-03T03:46:12;12.30;;;8.15;;
23826;SDS011;12094;50.822;4.376;2023-04-03T03:48:42;16.45;;;8.23;;
23826;SDS011;12094;50.822;4.376;2023-04-03T03:51:11;15.35;;;8.30;;
23826;SDS011;12094;50.822;4.376;2023-04-03T03:53:38;16.23;;;8.82;;
23826;SDS011;12094;50.822;4.376;2023-04-03T03:56:09;12.77;;;8.40;;
23826;SDS011;12094;50.822;4.376;2023-04-03T03:58:38;18.20;;;8.65;;
23826;SDS011;12094;50.822;4.376;2023-04-03T04:01:06;13.20;;;8.77;;
23826;SDS011;12094;50.822;4.376;2023-04-03T04:03:38;14.27;;;9.10;;
23826;SDS011;12094;50.822;4.376;2023-04-03T04:06:08;13.13;;;8.70;;
23826;SDS011;12094;50.822;4.376;2023-04-03T04:08:35;17.65;;;8.85;;
23826;SDS011;12094;50.822;4.376;2023-04-03T04:11:04;15.80;;;8.73;;
23826;SDS011;12094;50.822;4.376;2023-04-03T04:13:31;15.48;;;9.00;;
23826;SDS011;12094;50.822;4.376;2023-04-03T04:16:01;20.05;;;9.55;;
23826;SDS011;12094;50.822;4.376;2023-04-03T04:18:30;17.05;;;8.68;;
23826;SDS011;12094;50.822;4.376;2023-04-03T04:20:57;18.08;;;8.65;;
23826;SDS011;12094;50.822;4.376;2023-04-03T04:23:24;15.55;;;9.45;;
23826;SDS011;12094;50.822;4.376;2023-04-03T04:25:54;22.85;;;9.50;;
23826;SDS011;12094;50.822;4.376;2023-04-03T04:28:23;16.50;;;9.73;;
23826;SDS011;12094;50.822;4.376;2023-04-03T04:30:52;14.45;;;9.50;;
23826;SDS011;12094;50.822;4.376;2023-04-03T04:33:23;13.95;;;8.88;;
23826;SDS011;12094;50.822;4.376;2023-04-03T04:36:10;13.55;;;8.95;;
23826;SDS011;12094;50.822;4.376;2023-04-03T04:38:53;16.95;;;9.25;;
23826;SDS011;12094;50.822;4.376;2023-04-03T04:41:39;14.75;;;9.40;;
23826;SDS011;12094;50.822;4.376;2023-04-03T04:44:40;19.55;;;9.55;;
23826;SDS011;12094;50.822;4.376;2023-04-03T04:47:54;14.63;;;9.50;;
23826;SDS011;12094;50.822;4.376;2023-04-03T04:50:40;19.88;;;9.38;;
23826;SDS011;12094;50.822;4.376;2023-04-03T04:57:09;15.70;;;9.32;;
23826;SDS011;12094;50.822;4.376;2023-04-03T05:03:49;13.88;;;9.43;;
23826;SDS011;12094;50.822;4.376;2023-04-03T05:06:25;15.00;;;9.80;;
23826;SDS011;12094;50.822;4.376;2023-04-03T05:08:58;20.40;;;10.35;;
23826;SDS011;12094;50.822;4.376;2023-04-03T05:12:36;17.92;;;10.10;;
23826;SDS011;12094;50.822;4.376;2023-04-03T05:15:09;15.73;;;10.40;;
23826;SDS011;12094;50.822;4.376;2023-04-03T05:17:55;16.10;;;10.10;;
23826;SDS011;12094;50.822;4.376;2023-04-03T05:20:31;15.02;;;10.43;;
23826;SDS011;12094;50.822;4.376;2023-04-03T05:26:20;18.10;;;11.27;;
23826;SDS011;12094;50.822;4.376;2023-04-03T05:29:38;16.65;;;10.45;;
23826;SDS011;12094;50.822;4.376;2023-04-03T05:32:34;16.70;;;10.52;;
23826;SDS011;12094;50.822;4.376;2023-04-03T05:35:18;15.82;;;10.50;;
23826;SDS011;12094;50.822;4.376;2023-04-03T05:37:50;17.23;;;10.80;;
23826;SDS011;12094;50.822;4.376;2023-04-03T05:40:17;18.02;;;11.23;;
23826;SDS011;12094;50.822;4.376;2023-04-03T05:42:56;19.00;;;11.43;;
23826;SDS011;12094;50.822;4.376;2023-04-03T05:45:34;18.73;;;11.93;;
23826;SDS011;12094;50.822;4.376;2023-04-03T05:48:02;20.80;;;11.63;;
23826;SDS011;12094;50.822;4.376;2023-04-03T05:53:46;19.00;;;12.00;;
23826;SDS011;12094;50.822;4.376;2023-04-03T05:56:42;17.80;;;11.95;;
23826;SDS011;12094;50.822;4.376;2023-04-03T05:59:10;24.13;;;12.38;;
23826;SDS011;12094;50.822;4.376;2023-04-03T06:01:37;21.48;;;11.82;;
23826;SDS011;12094;50.822;4.376;2023-04-03T06:04:06;22.00;;;12.75;;
23826;SDS011;12094;50.822;4.376;2023-04-03T06:06:58;22.45;;;12.02;;
23826;SDS011;12094;50.822;4.376;2023-04-03T06:09:26;20.00;;;12.07;;
23826;SDS011;12094;50.822;4.376;2023-04-03T06:11:55;24.70;;;12.57;;
23826;SDS011;12094;50.822;4.376;2023-04-03T06:14:26;16.55;;;11.93;;
23826;SDS011;12094;50.822;4.376;2023-04-03T06:16:53;24.52;;;12.82;;
23826;SDS011;12094;50.822;4.376;2023-04-03T06:19:21;18.45;;;12.32;;
23826;SDS011;12094;50.822;4.376;2023-04-03T06:21:51;24.63;;;14.00;;
23826;SDS011;12094;50.822;4.376;2023-04-03T06:24:18;20.25;;;13.57;;
23826;SDS011;12094;50.822;4.376;2023-04-03T06:26:49;18.25;;;12.13;;
23826;SDS011;12094;50.822;4.376;2023-04-03T06:29:20;22.83;;;13.10;;
23826;SDS011;12094;50.822;4.376;2023-04-03T06:31:47;20.70;;;13.23;;
23826;SDS011;12094;50.822;4.376;2023-04-03T06:34:14;19.65;;;12.82;;
23826;SDS011;12094;50.822;4.376;2023-04-03T06:36:42;19.92;;;13.13;;
23826;SDS011;12094;50.822;4.376;2023-04-03T06:39:19;17.30;;;12.52;;
23826;SDS011;12094;50.822;4.376;2023-04-03T06:41:49;20.42;;;13.45;;
23826;SDS011;12094;50.822;4.376;2023-04-03T06:44:26;20.83;;;12.85;;
23826;SDS011;12094;50.822;4.376;2023-04-03T06:46:53;22.27;;;12.15;;
23826;SDS011;12094;50.822;4.376;2023-04-03T06:49:20;24.80;;;12.30;;
23826;SDS011;12094;50.822;4.376;2023-04-03T06:51:48;24.63;;;13.20;;
23826;SDS011;12094;50.822;4.376;2023-04-03T06:54:15;18.77;;;12.70;;
23826;SDS011;12094;50.822;4.376;2023-04-03T06:56:42;19.10;;;12.15;;
23826;SDS011;12094;50.822;4.376;2023-04-03T06:59:10;18.70;;;13.07;;
23826;SDS011;12094;50.822;4.376;2023-04-03T07:01:39;22.65;;;13.63;;
23826;SDS011;12094;50.822;4.376;2023-04-03T07:04:07;17.42;;;12.02;;
23826;SDS011;12094;50.822;4.376;2023-04-03T07:06:34;20.52;;;13.38;;
23826;SDS011;12094;50.822;4.376;2023-04-03T07:09:02;18.50;;;12.85;;
23826;SDS011;12094;50.822;4.376;2023-04-03T07:11:30;19.85;;;12.48;;
23826;SDS011;12094;50.822;4.376;2023-04-03T07:13:58;21.48;;;13.40;;
23826;SDS011;12094;50.822;4.376;2023-04-03T07:16:25;21.10;;;14.60;;
23826;SDS011;12094;50.822;4.376;2023-04-03T07:18:55;21.42;;;12.98;;
23826;SDS011;12094;50.822;4.376;2023-04-03T07:21:23;20.13;;;12.82;;
23826;SDS011;12094;50.822;4.376;2023-04-03T07:23:50;18.27;;;11.70;;
23826;SDS011;12094;50.822;4.376;2023-04-03T07:26:17;20.55;;;12.65;;
23826;SDS011;12094;50.822;4.376;2023-04-03T07:28:44;19.42;;;11.77;;
23826;SDS011;12094;50.822;4.376;2023-04-03T07:31:13;22.17;;;11.57;;
23826;SDS011;12094;50.822;4.376;2023-04-03T07:33:42;20.60;;;11.57;;
23826;SDS011;12094;50.822;4.376;2023-04-03T07:36:09;19.40;;;11.93;;
23826;SDS011;12094;50.822;4.376;2023-04-03T07:38:40;26.13;;;14.45;;
23826;SDS011;12094;50.822;4.376;2023-04-03T07:41:10;20.33;;;10.98;;
23826;SDS011;12094;50.822;4.376;2023-04-03T07:43:42;18.05;;;11.05;;
23826;SDS011;12094;50.822;4.376;2023-04-03T07:46:09;25.52;;;11.48;;
23826;SDS011;12094;50.822;4.376;2023-04-03T07:48:36;27.70;;;12.32;;
23826;SDS011;12094;50.822;4.376;2023-04-03T07:51:09;25.90;;;11.82;;
23826;SDS011;12094;50.822;4.376;2023-04-03T07:53:37;17.70;;;12.13;;
23826;SDS011;12094;50.822;4.376;2023-04-03T07:56:10;21.52;;;11.02;;
23826;SDS011;12094;50.822;4.376;2023-04-03T08:02:17;20.27;;;11.00;;
23826;SDS011;12094;50.822;4.376;2023-04-03T08:04:44;25.27;;;13.57;;
23826;SDS011;12094;50.822;4.376;2023-04-03T08:07:12;14.30;;;9.95;;
23826;SDS011;12094;50.822;4.376;2023-04-03T08:09:39;16.63;;;9.85;;
23826;SDS011;12094;50.822;4.376;2023-04-03T08:12:24;15.70;;;10.10;;
23826;SDS011;12094;50.822;4.376;2023-04-03T08:15:17;14.70;;;8.98;;
23826;SDS011;12094;50.822;4.376;2023-04-03T08:17:58;11.88;;;8.20;;
23826;SDS011;12094;50.822;4.376;2023-04-03T08:20:37;16.08;;;8.05;;
23826;SDS011;12094;50.822;4.376;2023-04-03T08:23:16;14.05;;;8.93;;
23826;SDS011;12094;50.822;4.376;2023-04-03T08:25:51;15.77;;;8.73;;
23826;SDS011;12094;50.822;4.376;2023-04-03T08:31:19;15.38;;;8.07;;
23826;SDS011;12094;50.822;4.376;2023-04-03T08:33:46;13.65;;;8.20;;
23826;SDS011;12094;50.822;4.376;2023-04-03T08:38:51;15.10;;;8.80;;
23826;SDS011;12094;50.822;4.376;2023-04-03T08:41:20;14.80;;;7.72;;
23826;SDS011;12094;50.822;4.376;2023-04-03T08:55:01;17.90;;;7.45;;
23826;SDS011;12094;50.822;4.376;2023-04-03T08:58:00;14.88;;;8.05;;
23826;SDS011;12094;50.822;4.376;2023-04-03T09:03:31;12.55;;;8.15;;
23826;SDS011;12094;50.822;4.376;2023-04-03T09:11:44;21.90;;;7.57;;
23826;SDS011;12094;50.822;4.376;2023-04-03T09:18:19;12.20;;;6.68;;
23826;SDS011;12094;50.822;4.376;2023-04-03T09:21:13;10.00;;;6.38;;
23826;SDS011;12094;50.822;4.376;2023-04-03T09:23:50;9.50;;;6.20;;
23826;SDS011;12094;50.822;4.376;2023-04-03T09:26:41;8.95;;;5.95;;
23826;SDS011;12094;50.822;4.376;2023-04-03T09:29:19;9.00;;;6.93;;
23826;SDS011;12094;50.822;4.376;2023-04-03T09:31:59;9.20;;;5.75;;
23826;SDS011;12094;50.822;4.376;2023-04-03T09:34:28;9.95;;;5.32;;
23826;SDS011;12094;50.822;4.376;2023-04-03T09:37:01;9.07;;;4.28;;
23826;SDS011;12094;50.822;4.376;2023-04-03T09:39:52;8.20;;;4.22;;
23826;SDS011;12094;50.822;4.376;2023-04-03T09:45:36;21.70;;;5.40;;
23826;SDS011;12094;50.822;4.376;2023-04-03T09:53:38;10.57;;;3.80;;
23826;SDS011;12094;50.822;4.376;2023-04-03T10:01:44;9.00;;;3.83;;
23826;SDS011;12094;50.822;4.376;2023-04-03T10:04:36;11.35;;;3.90;;
23826;SDS011;12094;50.822;4.376;2023-04-03T10:07:28;7.28;;;3.33;;
23826;SDS011;12094;50.822;4.376;2023-04-03T10:10:16;7.60;;;3.78;;
23826;SDS011;12094;50.822;4.376;2023-04-03T10:12:46;7.75;;;3.33;;
23826;SDS011;12094;50.822;4.376;2023-04-03T10:15:14;8.48;;;3.72;;
23826;SDS011;12094;50.822;4.376;2023-04-03T10:18:00;9.15;;;3.63;;
23826;SDS011;12094;50.822;4.376;2023-04-03T10:20:51;11.65;;;3.80;;
23826;SDS011;12094;50.822;4.376;2023-04-03T10:23:24;7.57;;;3.45;;
23826;SDS011;12094;50.822;4.376;2023-04-03T10:27:05;7.15;;;3.33;;
23826;SDS011;12094;50.822;4.376;2023-04-03T10:29:48;6.65;;;3.40;;
23826;SDS011;12094;50.822;4.376;2023-04-03T10:32:58;9.43;;;3.45;;
23826;SDS011;12094;50.822;4.376;2023-04-03T10:44:52;5.50;;;2.85;;
23826;SDS011;12094;50.822;4.376;2023-04-03T10:56:44;10.98;;;3.90;;
23826;SDS011;12094;50.822;4.376;2023-04-03T10:59:41;8.20;;;3.13;;
23826;SDS011;12094;50.822;4.376;2023-04-03T11:05:01;5.97;;;2.53;;
23826;SDS011;12094;50.822;4.376;2023-04-03T11:07:49;5.63;;;2.33;;
23826;SDS011;12094;50.822;4.376;2023-04-03T11:10:45;15.48;;;3.20;;
23826;SDS011;12094;50.822;4.376;2023-04-03T11:16:09;6.05;;;2.22;;
23826;SDS011;12094;50.822;4.376;2023-04-03T11:18:52;11.90;;;2.45;;
23826;SDS011;12094;50.822;4.376;2023-04-03T11:21:29;9.48;;;2.70;;
23826;SDS011;12094;50.822;4.376;2023-04-03T11:24:02;8.05;;;2.50;;
23826;SDS011;12094;50.822;4.376;2023-04-03T11:26:37;5.57;;;2.33;;
23826;SDS011;12094;50.822;4.376;2023-04-03T11:29:17;6.88;;;1.98;;
23826;SDS011;12094;50.822;4.376;2023-04-03T11:34:53;5.72;;;2.20;;
23826;SDS011;12094;50.822;4.376;2023-04-03T11:37:36;6.28;;;2.30;;
23826;SDS011;12094;50.822;4.376;2023-04-03T11:42:40;3.85;;;1.90;;
23826;SDS011;12094;50.822;4.376;2023-04-03T11:47:49;5.57;;;2.03;;
23826;SDS011;12094;50.822;4.376;2023-04-03T11:53:02;3.60;;;2.08;;
23826;SDS011;12094;50.822;4.376;2023-04-03T12:14:03;5.15;;;2.30;;
23826;SDS011;12094;50.822;4.376;2023-04-03T12:22:07;4.10;;;2.60;;
23826;SDS011;12094;50.822;4.376;2023-04-03T12:24:38;4.13;;;2.13;;
23826;SDS011;12094;50.822;4.376;2023-04-03T12:27:24;5.88;;;2.22;;
23826;SDS011;12094;50.822;4.376;2023-04-03T12:30:05;5.60;;;2.05;;
23826;SDS011;12094;50.822;4.376;2023-04-03T12:35:47;7.45;;;2.10;;
23826;SDS011;12094;50.822;4.376;2023-04-03T12:46:43;8.07;;;2.00;;
23826;SDS011;12094;50.822;4.376;2023-04-03T12:49:26;5.63;;;1.90;;
23826;SDS011;12094;50.822;4.376;2023-04-03T12:52:47;7.07;;;1.63;;
23826;SDS011;12094;50.822;4.376;2023-04-03T12:54:59;3.15;;;1.95;;
23826;SDS011;12094;50.822;4.376;2023-04-03T12:57:31;5.63;;;2.08;;
23826;SDS011;12094;50.822;4.376;2023-04-03T13:00:00;6.70;;;1.90;;
23826;SDS011;12094;50.822;4.376;2023-04-03T13:03:00;8.57;;;2.10;;
23826;SDS011;12094;50.822;4.376;2023-04-03T13:05:32;6.65;;;2.00;;
23826;SDS011;12094;50.822;4.376;2023-04-03T13:08:04;3.33;;;1.67;;
23826;SDS011;12094;50.822;4.376;2023-04-03T13:10:47;3.80;;;1.80;;
23826;SDS011;12094;50.822;4.376;2023-04-03T13:13:22;5.47;;;1.70;;
23826;SDS011;12094;50.822;4.376;2023-04-03T13:15:53;5.75;;;2.00;;
23826;SDS011;12094;50.822;4.376;2023-04-03T13:21:01;4.18;;;1.88;;
23826;SDS011;12094;50.822;4.376;2023-04-03T13:23:31;5.68;;;2.08;;
23826;SDS011;12094;50.822;4.376;2023-04-03T13:26:02;7.03;;;1.92;;
23826;SDS011;12094;50.822;4.376;2023-04-03T13:28:31;7.18;;;2.08;;
23826;SDS011;12094;50.822;4.376;2023-04-03T13:31:01;5.57;;;2.00;;
23826;SDS011;12094;50.822;4.376;2023-04-03T13:33:52;4.00;;;1.80;;
23826;SDS011;12094;50.822;4.376;2023-04-03T13:36:30;6.78;;;1.80;;
23826;SDS011;12094;50.822;4.376;2023-04-03T13:39:07;3.33;;;1.45;;
23826;SDS011;12094;50.822;4.376;2023-04-03T13:41:59;4.38;;;1.63;;
23826;SDS011;12094;50.822;4.376;2023-04-03T13:44:31;5.13;;;1.80;;
23826;SDS011;12094;50.822;4.376;2023-04-03T13:49:38;4.28;;;1.88;;
23826;SDS011;12094;50.822;4.376;2023-04-03T13:54:51;7.00;;;2.17;;
23826;SDS011;12094;50.822;4.376;2023-04-03T13:57:22;5.82;;;2.20;;
23826;SDS011;12094;50.822;4.376;2023-04-03T13:59:51;5.47;;;2.10;;
23826;SDS011;12094;50.822;4.376;2023-04-03T14:02:26;5.90;;;2.20;;
23826;SDS011;12094;50.822;4.376;2023-04-03T14:04:58;4.95;;;1.85;;
23826;SDS011;12094;50.822;4.376;2023-04-03T14:07:29;6.13;;;2.30;;
23826;SDS011;12094;50.822;4.376;2023-04-03T14:09:57;5.63;;;1.90;;
23826;SDS011;12094;50.822;4.376;2023-04-03T14:12:32;5.53;;;2.10;;
23826;SDS011;12094;50.822;4.376;2023-04-03T14:15:05;5.70;;;2.10;;
23826;SDS011;12094;50.822;4.376;2023-04-03T14:18:05;5.00;;;1.88;;
23826;SDS011;12094;50.822;4.376;2023-04-03T14:20:33;5.55;;;2.00;;
23826;SDS011;12094;50.822;4.376;2023-04-03T14:23:00;5.78;;;2.20;;
23826;SDS011;12094;50.822;4.376;2023-04-03T14:25:27;5.45;;;2.08;;
23826;SDS011;12094;50.822;4.376;2023-04-03T14:27:55;5.30;;;2.05;;
23826;SDS011;12094;50.822;4.376;2023-04-03T14:32:51;6.00;;;2.47;;
23826;SDS011;12094;50.822;4.376;2023-04-03T14:35:18;6.95;;;2.28;;
23826;SDS011;12094;50.822;4.376;2023-04-03T14:37:47;5.15;;;1.92;;
23826;SDS011;12094;50.822;4.376;2023-04-03T14:40:17;5.70;;;2.00;;
23826;SDS011;12094;50.822;4.376;2023-04-03T14:42:47;5.28;;;1.98;;
23826;SDS011;12094;50.822;4.376;2023-04-03T14:45:16;7.00;;;2.28;;
23826;SDS011;12094;50.822;4.376;2023-04-03T14:47:46;10.23;;;2.17;;
23826;SDS011;12094;50.822;4.376;2023-04-03T14:50:19;7.47;;;2.15;;
23826;SDS011;12094;50.822;4.376;2023-04-03T14:52:52;5.60;;;2.05;;
23826;SDS011;12094;50.822;4.376;2023-04-03T14:55:23;5.93;;;1.75;;
23826;SDS011;12094;50.822;4.376;2023-04-03T14:57:51;5.82;;;1.90;;
23826;SDS011;12094;50.822;4.376;2023-04-03T15:00:20;4.85;;;1.95;;
23826;SDS011;12094;50.822;4.376;2023-04-03T15:02:48;4.97;;;1.88;;
23826;SDS011;12094;50.822;4.376;2023-04-03T15:05:16;3.58;;;1.60;;
23826;SDS011;12094;50.822;4.376;2023-04-03T15:07:48;6.43;;;1.80;;
23826;SDS011;12094;50.822;4.376;2023-04-03T15:10:23;4.30;;;1.75;;
23826;SDS011;12094;50.822;4.376;2023-04-03T15:12:52;7.85;;;2.10;;
23826;SDS011;12094;50.822;4.376;2023-04-03T15:15:20;3.53;;;1.90;;
23826;SDS011;12094;50.822;4.376;2023-04-03T15:17:55;4.35;;;1.50;;
23826;SDS011;12094;50.822;4.376;2023-04-03T15:20:27;4.53;;;1.90;;
23826;SDS011;12094;50.822;4.376;2023-04-03T15:22:57;8.65;;;2.25;;
23826;SDS011;12094;50.822;4.376;2023-04-03T15:25:27;4.30;;;2.05;;
23826;SDS011;12094;50.822;4.376;2023-04-03T15:27:55;6.28;;;1.88;;
23826;SDS011;12094;50.822;4.376;2023-04-03T15:32:54;5.40;;;2.13;;
23826;SDS011;12094;50.822;4.376;2023-04-03T15:35:21;7.10;;;2.05;;
23826;SDS011;12094;50.822;4.376;2023-04-03T15:43:18;4.78;;;1.83;;
23826;SDS011;12094;50.822;4.376;2023-04-03T15:45:46;5.03;;;2.08;;
23826;SDS011;12094;50.822;4.376;2023-04-03T15:48:15;5.35;;;2.00;;
23826;SDS011;12094;50.822;4.376;2023-04-03T15:50:46;4.03;;;1.85;;
23826;SDS011;12094;50.822;4.376;2023-04-03T15:53:13;5.28;;;2.40;;
23826;SDS011;12094;50.822;4.376;2023-04-03T15:55:41;3.55;;;1.95;;
23826;SDS011;12094;50.822;4.376;2023-04-03T15:58:09;4.72;;;1.90;;
23826;SDS011;12094;50.822;4.376;2023-04-03T16:00:38;4.07;;;2.13;;
23826;SDS011;12094;50.822;4.376;2023-04-03T16:03:08;6.22;;;2.30;;
23826;SDS011;12094;50.822;4.376;2023-04-03T16:05:38;8.90;;;2.45;;
23826;SDS011;12094;50.822;4.376;2023-04-03T16:08:07;5.70;;;2.10;;
23826;SDS011;12094;50.822;4.376;2023-04-03T16:10:35;6.35;;;2.55;;
23826;SDS011;12094;50.822;4.376;2023-04-03T16:13:03;8.73;;;2.35;;
23826;SDS011;12094;50.822;4.376;2023-04-03T16:15:30;8.27;;;2.60;;
23826;SDS011;12094;50.822;4.376;2023-04-03T16:17:59;11.25;;;2.50;;
23826;SDS011;12094;50.822;4.376;2023-04-03T16:20:28;5.55;;;2.35;;
23826;SDS011;12094;50.822;4.376;2023-04-03T16:22:57;4.57;;;2.10;;
23826;SDS011;12094;50.822;4.376;2023-04-03T16:25:26;5.68;;;2.42;;
23826;SDS011;12094;50.822;4.376;2023-04-03T16:27:53;9.55;;;3.05;;
23826;SDS011;12094;50.822;4.376;2023-04-03T16:30:21;5.95;;;2.42;;
23826;SDS011;12094;50.822;4.376;2023-04-03T16:32:48;6.63;;;2.58;;
23826;SDS011;12094;50.822;4.376;2023-04-03T16:35:15;6.65;;;2.92;;
23826;SDS011;12094;50.822;4.376;2023-04-03T16:37:42;6.00;;;2.72;;
23826;SDS011;12094;50.822;4.376;2023-04-03T16:40:09;8.88;;;2.88;;
23826;SDS011;12094;50.822;4.376;2023-04-03T16:42:39;5.55;;;2.65;;
23826;SDS011;12094;50.822;4.376;2023-04-03T16:45:06;10.63;;;2.75;;
23826;SDS011;12094;50.822;4.376;2023-04-03T16:47:34;5.20;;;2.80;;
23826;SDS011;12094;50.822;4.376;2023-04-03T16:50:01;6.78;;;2.60;;
23826;SDS011;12094;50.822;4.376;2023-04-03T16:52:30;5.90;;;2.40;;
23826;SDS011;12094;50.822;4.376;2023-04-03T16:54:58;6.00;;;2.85;;
23826;SDS011;12094;50.822;4.376;2023-04-03T16:57:28;4.75;;;2.90;;
23826;SDS011;12094;50.822;4.376;2023-04-03T16:59:55;5.05;;;2.35;;
23826;SDS011;12094;50.822;4.376;2023-04-03T17:02:22;6.40;;;2.47;;
23826;SDS011;12094;50.822;4.376;2023-04-03T17:04:53;9.88;;;2.67;;
23826;SDS011;12094;50.822;4.376;2023-04-03T17:07:21;6.05;;;2.50;;
23826;SDS011;12094;50.822;4.376;2023-04-03T17:09:53;5.30;;;2.53;;
23826;SDS011;12094;50.822;4.376;2023-04-03T17:12:21;7.88;;;2.42;;
23826;SDS011;12094;50.822;4.376;2023-04-03T17:14:50;6.38;;;2.53;;
23826;SDS011;12094;50.822;4.376;2023-04-03T17:17:23;7.60;;;3.15;;
23826;SDS011;12094;50.822;4.376;2023-04-03T17:23:36;5.75;;;2.50;;
23826;SDS011;12094;50.822;4.376;2023-04-03T17:26:05;5.25;;;2.50;;
23826;SDS011;12094;50.822;4.376;2023-04-03T17:28:32;6.97;;;2.50;;
23826;SDS011;12094;50.822;4.376;2023-04-03T17:31:00;5.00;;;2.03;;
23826;SDS011;12094;50.822;4.376;2023-04-03T17:33:28;9.93;;;2.42;;
23826;SDS011;12094;50.822;4.376;2023-04-03T17:35:59;6.32;;;3.10;;
23826;SDS011;12094;50.822;4.376;2023-04-03T17:38:32;4.57;;;2.33;;
23826;SDS011;12094;50.822;4.376;2023-04-03T17:41:01;8.93;;;2.47;;
23826;SDS011;12094;50.822;4.376;2023-04-03T17:43:31;8.60;;;2.92;;
23826;SDS011;12094;50.822;4.376;2023-04-03T17:45:59;8.23;;;3.40;;
23826;SDS011;12094;50.822;4.376;2023-04-03T17:48:29;10.30;;;3.22;;
23826;SDS011;12094;50.822;4.376;2023-04-03T17:50:58;10.20;;;3.40;;
23826;SDS011;12094;50.822;4.376;2023-04-03T17:53:25;5.95;;;2.78;;